createdAt,value
2022-11-07T00:02:24.171Z,9.21
2022-11-07T00:05:13.361Z,9.21
2022-11-07T00:08:01.115Z,9.19
2022-11-07T00:10:48.665Z,9.17
2022-11-07T00:13:41.239Z,9.17
2022-11-07T00:16:29.474Z,9.15
2022-11-07T00:19:19.884Z,9.14
2022-11-07T00:22:09.123Z,9.13
2022-11-07T00:24:56.437Z,9.15
2022-11-07T00:27:44.152Z,9.13
2022-11-07T00:30:31.638Z,9.13
2022-11-07T00:33:19.362Z,9.12
2022-11-07T00:36:08.424Z,9.11
2022-11-07T00:38:57.280Z,9.11
2022-11-07T00:41:44.496Z,9.10
2022-11-07T00:44:32.219Z,9.10
2022-11-07T00:47:19.911Z,9.09
2022-11-07T00:50:09.221Z,9.08
2022-11-07T00:52:59.302Z,9.06
2022-11-07T00:55:48.267Z,9.05
2022-11-07T00:58:36.454Z,9.05
2022-11-07T01:01:27.527Z,9.04
2022-11-07T01:04:33.140Z,9.04
2022-11-07T01:07:20.801Z,9.03
2022-11-07T01:10:09.581Z,9.04
2022-11-07T01:12:58.915Z,9.03
2022-11-07T01:15:46.417Z,9.02
2022-11-07T01:18:34.189Z,9.01
2022-11-07T01:21:22.225Z,8.99
2022-11-07T01:24:12.055Z,8.98
2022-11-07T01:26:59.792Z,8.97
2022-11-07T01:29:48.646Z,8.97
2022-11-07T01:32:36.088Z,8.96
2022-11-07T01:35:23.741Z,8.95
2022-11-07T01:38:11.398Z,8.93
2022-11-07T01:41:16.693Z,8.92
2022-11-07T01:44:44.868Z,8.91
2022-11-07T01:47:38.915Z,8.92
2022-11-07T01:50:27.913Z,8.89
2022-11-07T01:53:15.635Z,8.90
2022-11-07T01:56:03.939Z,8.90
2022-11-07T01:58:52.009Z,8.90
2022-11-07T02:01:39.610Z,8.90
2022-11-07T02:04:31.993Z,8.91
2022-11-07T02:07:22.801Z,8.90
2022-11-07T02:10:12.429Z,8.90
2022-11-07T02:13:01.509Z,8.92
2022-11-07T02:15:49.176Z,8.93
2022-11-07T02:18:38.546Z,8.93
2022-11-07T02:21:38.200Z,8.94
2022-11-07T02:24:32.806Z,8.94
2022-11-07T02:27:25.688Z,8.95
2022-11-07T02:30:17.284Z,8.96
2022-11-07T02:33:05.279Z,8.96
2022-11-07T02:35:55.520Z,8.96
2022-11-07T02:38:43.644Z,8.98
2022-11-07T02:41:36.240Z,8.98
2022-11-07T02:44:24.067Z,8.99
2022-11-07T02:47:11.427Z,8.98
2022-11-07T02:49:59.043Z,9.01
2022-11-07T02:52:46.718Z,9.02
2022-11-07T02:55:34.138Z,9.02
2022-11-07T02:58:23.249Z,9.04
2022-11-07T03:01:12.514Z,9.04
2022-11-07T03:04:00.549Z,9.05
2022-11-07T03:06:48.221Z,9.06
2022-11-07T03:09:35.646Z,9.08
2022-11-07T03:12:22.985Z,9.10
2022-11-07T03:15:13.579Z,9.11
2022-11-07T03:18:00.962Z,9.12
2022-11-07T03:20:48.468Z,9.13
2022-11-07T03:23:37.889Z,9.13
2022-11-07T03:26:25.389Z,9.15
2022-11-07T03:29:12.983Z,9.16
2022-11-07T03:32:01.864Z,9.17
2022-11-07T03:34:49.542Z,9.19
2022-11-07T03:37:37.480Z,9.19
2022-11-07T03:40:24.881Z,9.22
2022-11-07T03:43:12.829Z,9.23
2022-11-07T03:46:00.905Z,9.24
2022-11-07T03:48:49.961Z,9.24
2022-11-07T03:51:37.668Z,9.25
2022-11-07T03:54:24.912Z,9.26
2022-11-07T03:57:12.614Z,9.26
2022-11-07T04:00:00.354Z,9.27
2022-11-07T04:02:47.869Z,9.27
2022-11-07T04:05:36.838Z,9.28
2022-11-07T04:08:24.559Z,9.27
2022-11-07T04:11:32.862Z,9.29
2022-11-07T04:14:37.657Z,9.29
2022-11-07T04:17:25.952Z,9.29
2022-11-07T04:20:13.684Z,9.30
2022-11-07T04:23:02.713Z,9.32
2022-11-07T04:26:07.491Z,9.33
2022-11-07T04:28:55.012Z,9.32
2022-11-07T04:31:42.611Z,9.33
2022-11-07T04:34:30.265Z,9.34
2022-11-07T04:37:18.183Z,9.34
2022-11-07T04:40:11.243Z,9.36
2022-11-07T04:42:59.341Z,9.37
2022-11-07T04:45:46.904Z,9.38
2022-11-07T04:48:34.477Z,9.38
2022-11-07T04:51:24.644Z,9.39
2022-11-07T04:54:14.443Z,9.41
2022-11-07T04:57:03.217Z,9.43
2022-11-07T04:59:50.475Z,9.43
2022-11-07T05:02:38.149Z,9.44
2022-11-07T05:05:26.065Z,9.47
2022-11-07T05:08:13.808Z,9.47
2022-11-07T05:11:01.359Z,9.47
2022-11-07T05:13:50.409Z,9.48
2022-11-07T05:16:38.584Z,9.49
2022-11-07T05:19:26.351Z,9.49
2022-11-07T05:22:31.619Z,9.51
2022-11-07T05:25:19.207Z,9.52
2022-11-07T05:28:07.072Z,9.54
2022-11-07T05:30:59.323Z,9.53
2022-11-07T05:33:47.101Z,9.55
2022-11-07T05:36:36.636Z,9.57
2022-11-07T05:39:24.707Z,9.58
2022-11-07T05:42:11.955Z,9.60
2022-11-07T05:44:59.866Z,9.61
2022-11-07T05:48:00.045Z,9.62
2022-11-07T05:50:47.328Z,9.62
2022-11-07T05:53:35.533Z,9.63
2022-11-07T05:56:25.647Z,9.63
2022-11-07T05:59:13.967Z,9.63
2022-11-07T06:02:01.386Z,9.64
2022-11-07T06:04:53.259Z,9.66
2022-11-07T06:07:41.685Z,9.67
2022-11-07T06:10:29.032Z,9.69
2022-11-07T06:13:17.938Z,9.69
2022-11-07T06:16:06.551Z,9.69
2022-11-07T06:18:56.325Z,9.72
2022-11-07T06:21:47.052Z,9.73
2022-11-07T06:24:34.546Z,9.74
2022-11-07T06:27:22.092Z,9.75
2022-11-07T06:30:11.275Z,9.76
2022-11-07T06:33:02.839Z,9.78
2022-11-07T06:35:50.324Z,9.79
2022-11-07T06:38:40.611Z,9.81
2022-11-07T06:41:31.303Z,9.83
2022-11-07T06:44:19.024Z,9.84
2022-11-07T06:47:06.735Z,9.87
2022-11-07T06:49:53.994Z,9.88
2022-11-07T06:52:41.733Z,9.90
2022-11-07T06:55:30.859Z,9.91
2022-11-07T06:58:18.183Z,9.92
2022-11-07T07:01:08.760Z,9.95
2022-11-07T07:03:56.424Z,9.96
2022-11-07T07:06:46.972Z,9.99
2022-11-07T07:09:34.752Z,10.01
2022-11-07T07:12:23.701Z,10.03
2022-11-07T07:15:11.790Z,10.03
2022-11-07T07:18:01.862Z,10.06
2022-11-07T07:20:49.843Z,10.08
2022-11-07T07:23:38.733Z,10.10
2022-11-07T07:26:29.423Z,10.12
2022-11-07T07:29:20.335Z,10.15
2022-11-07T07:32:07.970Z,10.19
2022-11-07T07:34:56.274Z,10.21
2022-11-07T07:37:43.936Z,10.24
2022-11-07T07:40:31.543Z,10.28
2022-11-07T07:43:21.067Z,10.31
2022-11-07T07:46:14.552Z,10.35
2022-11-07T07:49:09.310Z,10.38
2022-11-07T07:51:57.302Z,10.42
2022-11-07T07:54:44.859Z,10.44
2022-11-07T07:57:32.722Z,10.46
2022-11-07T08:00:20.788Z,10.48
2022-11-07T08:03:12.579Z,10.52
2022-11-07T08:06:00.801Z,10.55
2022-11-07T08:08:48.485Z,10.58
2022-11-07T08:11:36.240Z,10.61
2022-11-07T08:14:23.937Z,10.63
2022-11-07T08:17:11.491Z,10.66
2022-11-07T08:20:00.440Z,10.69
2022-11-07T08:22:48.067Z,10.74
2022-11-07T08:25:35.833Z,10.77
2022-11-07T08:28:28.186Z,10.83
2022-11-07T08:31:15.631Z,10.87
2022-11-07T08:34:03.685Z,10.93
2022-11-07T08:36:52.900Z,10.98
2022-11-07T08:39:40.463Z,11.03
2022-11-07T08:42:27.880Z,11.09
2022-11-07T08:45:15.440Z,11.13
2022-11-07T08:48:03.560Z,11.19
2022-11-07T08:50:54.637Z,11.25
2022-11-07T08:53:43.818Z,11.30
2022-11-07T08:56:31.290Z,11.35
2022-11-07T08:59:19.340Z,11.38
2022-11-07T09:05:17.237Z,11.45
2022-11-07T09:08:05.369Z,11.49
2022-11-07T09:10:54.262Z,11.55
2022-11-07T09:13:41.541Z,11.59
2022-11-07T09:16:29.295Z,11.61
2022-11-07T09:19:17.220Z,11.65
2022-11-07T09:22:04.777Z,11.66
2022-11-07T09:24:52.584Z,11.70
2022-11-07T09:27:41.897Z,11.73
2022-11-07T09:30:30.736Z,11.75
2022-11-07T09:33:19.189Z,11.79
2022-11-07T09:36:07.614Z,11.82
2022-11-07T09:38:57.438Z,11.85
2022-11-07T09:41:57.694Z,11.88
2022-11-07T09:44:57.665Z,11.92
2022-11-07T09:47:50.335Z,11.94
2022-11-07T09:50:41.590Z,11.97
2022-11-07T09:53:35.438Z,11.98
2022-11-07T09:56:23.626Z,12.01
2022-11-07T09:59:22.537Z,12.03
2022-11-07T10:02:18.405Z,12.06
2022-11-07T10:05:07.750Z,12.10
2022-11-07T10:08:04.921Z,12.16
2022-11-07T10:10:59.527Z,12.22
2022-11-07T10:14:00.203Z,12.27
2022-11-07T10:17:12.503Z,12.34
2022-11-07T10:20:24.325Z,12.41
2022-11-07T10:23:33.889Z,12.48
2022-11-07T10:26:28.387Z,12.57
2022-11-07T10:29:18.738Z,12.67
2022-11-07T10:32:18.155Z,12.75
2022-11-07T10:35:26.362Z,12.83
2022-11-07T10:38:27.837Z,12.88
2022-11-07T10:41:18.171Z,12.92
2022-11-07T10:44:08.923Z,12.96
2022-11-07T10:46:56.325Z,12.99
2022-11-07T10:49:56.125Z,13.03
2022-11-07T10:52:55.287Z,13.05
2022-11-07T10:55:49.514Z,13.04
2022-11-07T10:58:46.193Z,13.07
2022-11-07T11:01:34.264Z,13.05
2022-11-07T11:04:27.221Z,13.05
2022-11-07T11:07:14.839Z,13.05
2022-11-07T11:10:07.944Z,13.07
2022-11-07T11:12:58.798Z,13.08
2022-11-07T11:15:47.956Z,13.07
2022-11-07T11:18:38.316Z,13.07
2022-11-07T11:21:26.653Z,13.06
2022-11-07T11:24:27.644Z,13.07
2022-11-07T11:27:21.602Z,13.08
2022-11-07T11:30:16.311Z,13.07
2022-11-07T11:33:19.635Z,13.09
2022-11-07T11:36:13.893Z,13.09
2022-11-07T11:39:12.172Z,13.10
2022-11-07T11:42:00.667Z,13.12
2022-11-07T11:44:51.546Z,13.14
2022-11-07T11:47:42.712Z,13.15
2022-11-07T11:50:41.249Z,13.18
2022-11-07T11:53:30.009Z,13.19
2022-11-07T11:56:38.028Z,13.21
2022-11-07T12:00:06.737Z,13.23
2022-11-07T12:03:30.936Z,13.24
2022-11-07T12:06:21.156Z,13.25
2022-11-07T12:09:28.174Z,13.28
2022-11-07T12:12:28.115Z,13.27
2022-11-07T12:15:44.253Z,13.23
2022-11-07T12:18:40.512Z,13.22
2022-11-07T12:21:35.114Z,13.19
2022-11-07T12:24:39.226Z,13.15
2022-11-07T12:27:40.728Z,13.11
2022-11-07T12:30:46.487Z,13.06
2022-11-07T12:33:43.303Z,13.01
2022-11-07T12:36:51.922Z,12.98
2022-11-07T12:40:08.027Z,12.93
2022-11-07T12:43:10.788Z,12.89
2022-11-07T12:46:09.312Z,12.85
2022-11-07T12:49:15.576Z,12.82
2022-11-07T12:52:15.275Z,12.79
2022-11-07T12:55:06.253Z,12.76
2022-11-07T12:57:56.214Z,12.74
2022-11-07T13:00:44.651Z,12.72
2022-11-07T13:03:54.201Z,12.70
2022-11-07T13:06:50.253Z,12.67
2022-11-07T13:09:48.175Z,12.65
2022-11-07T13:12:45.375Z,12.64
2022-11-07T13:15:53.809Z,12.63
2022-11-07T13:18:42.377Z,12.60
2022-11-07T13:21:40.370Z,12.58
2022-11-07T13:24:27.981Z,12.58
2022-11-07T13:27:26.438Z,12.57
2022-11-07T13:30:22.459Z,12.55
2022-11-07T13:33:27.709Z,12.54
2022-11-07T13:36:28.165Z,12.53
2022-11-07T13:39:17.187Z,12.53
2022-11-07T13:42:06.009Z,12.52
2022-11-07T13:44:57.895Z,12.52
2022-11-07T13:47:46.647Z,12.53
2022-11-07T13:50:42.139Z,12.52
2022-11-07T13:53:38.722Z,12.52
2022-11-07T13:56:36.425Z,12.50
2022-11-07T13:59:40.305Z,12.52
2022-11-07T14:02:30.119Z,12.49
2022-11-07T14:05:18.520Z,12.48
2022-11-07T14:08:13.918Z,12.47
2022-11-07T14:11:02.830Z,12.47
2022-11-07T14:13:53.888Z,12.45
2022-11-07T14:16:45.638Z,12.44
2022-11-07T14:19:33.401Z,12.42
2022-11-07T14:22:30.020Z,12.43
2022-11-07T14:25:25.876Z,12.39
2022-11-07T14:28:18.976Z,12.39
2022-11-07T14:31:16.964Z,12.36
2022-11-07T14:34:17.477Z,12.35
2022-11-07T14:37:08.535Z,12.35
2022-11-07T14:39:56.816Z,12.33
2022-11-07T14:42:45.807Z,12.31
2022-11-07T14:48:45.370Z,12.29
2022-11-07T14:51:33.167Z,12.29
2022-11-07T14:54:22.470Z,12.29
2022-11-07T14:57:14.741Z,12.27
2022-11-07T15:00:02.370Z,12.26
2022-11-07T15:02:54.935Z,12.26
2022-11-07T15:05:46.818Z,12.25
2022-11-07T15:08:36.823Z,12.24
2022-11-07T15:11:33.298Z,12.23
2022-11-07T15:14:26.498Z,12.19
2022-11-07T15:17:25.142Z,12.19
2022-11-07T15:20:24.175Z,12.17
2022-11-07T15:23:32.058Z,12.15
2022-11-07T15:26:23.983Z,12.11
2022-11-07T15:29:22.303Z,12.09
2022-11-07T15:32:18.399Z,12.07
2022-11-07T15:35:42.287Z,12.06
2022-11-07T15:38:29.203Z,12.05
2022-11-07T15:41:17.173Z,12.02
2022-11-07T15:44:04.654Z,12.02
2022-11-07T15:46:52.166Z,12.02
2022-11-07T15:49:39.921Z,12.00
2022-11-07T15:52:27.625Z,11.99
2022-11-07T15:55:19.627Z,11.99
2022-11-07T15:58:06.935Z,11.97
2022-11-07T16:00:57.287Z,11.96
2022-11-07T16:03:44.877Z,11.96
2022-11-07T16:06:33.224Z,11.95
2022-11-07T16:09:24.714Z,11.92
2022-11-07T16:12:16.075Z,11.91
2022-11-07T16:15:03.796Z,11.91
2022-11-07T16:17:51.699Z,11.88
2022-11-07T16:20:39.145Z,11.87
2022-11-07T16:23:26.687Z,11.85
2022-11-07T16:26:17.067Z,11.85
2022-11-07T16:29:11.511Z,11.85
2022-11-07T16:31:58.999Z,11.85
2022-11-07T16:34:46.652Z,11.84
2022-11-07T16:37:34.457Z,11.84
2022-11-07T16:40:23.779Z,11.84
2022-11-07T16:43:11.254Z,11.84
2022-11-07T16:46:00.166Z,11.84
2022-11-07T16:48:50.407Z,11.85
2022-11-07T16:51:38.159Z,11.84
2022-11-07T16:54:27.776Z,11.85
2022-11-07T16:57:18.203Z,11.84
2022-11-07T17:00:07.648Z,11.85
2022-11-07T17:02:56.570Z,11.85
2022-11-07T17:05:44.204Z,11.84
2022-11-07T17:08:37.656Z,11.83
2022-11-07T17:11:25.388Z,11.82
2022-11-07T17:14:13.374Z,11.79
2022-11-07T17:17:03.665Z,11.79
2022-11-07T17:19:52.606Z,11.78
2022-11-07T17:22:45.360Z,11.76
2022-11-07T17:25:33.009Z,11.74
2022-11-07T17:28:21.114Z,11.71
2022-11-07T17:31:11.899Z,11.70
2022-11-07T17:33:59.783Z,11.69
2022-11-07T17:36:51.819Z,11.69
2022-11-07T17:39:39.427Z,11.67
2022-11-07T17:42:27.068Z,11.65
2022-11-07T17:45:15.470Z,11.65
2022-11-07T17:48:03.140Z,11.63
2022-11-07T17:50:50.767Z,11.63
2022-11-07T17:53:40.196Z,11.61
2022-11-07T17:56:30.965Z,11.60
2022-11-07T17:59:20.170Z,11.59
2022-11-07T18:02:16.541Z,11.57
2022-11-07T18:05:04.270Z,11.55
2022-11-07T18:07:52.746Z,11.55
2022-11-07T18:10:41.430Z,11.54
2022-11-07T18:13:28.881Z,11.53
2022-11-07T18:16:19.723Z,11.49
2022-11-07T18:19:08.605Z,11.50
2022-11-07T18:21:56.356Z,11.50
2022-11-07T18:24:44.001Z,11.48
2022-11-07T18:27:32.961Z,11.46
2022-11-07T18:30:20.577Z,11.47
2022-11-07T18:33:07.963Z,11.45
2022-11-07T18:35:55.949Z,11.43
2022-11-07T18:38:43.761Z,11.43
2022-11-07T18:41:31.161Z,11.42
2022-11-07T18:44:21.260Z,11.41
2022-11-07T18:47:08.609Z,11.39
2022-11-07T18:49:57.482Z,11.39
2022-11-07T18:52:45.859Z,11.39
2022-11-07T18:55:33.503Z,11.38
2022-11-07T18:58:20.967Z,11.37
2022-11-07T19:01:13.233Z,11.36
2022-11-07T19:04:03.647Z,11.34
2022-11-07T19:06:58.017Z,11.34
2022-11-07T19:09:48.750Z,11.32
2022-11-07T19:12:35.974Z,11.31
2022-11-07T19:15:27.191Z,11.32
2022-11-07T19:18:17.135Z,11.30
2022-11-07T19:21:05.867Z,11.30
2022-11-07T19:23:55.296Z,11.30
2022-11-07T19:26:42.725Z,11.29
2022-11-07T19:29:30.577Z,11.27
2022-11-07T19:32:18.848Z,11.28
2022-11-07T19:35:08.733Z,11.26
2022-11-07T19:37:56.101Z,11.26
2022-11-07T19:40:52.878Z,11.27
2022-11-07T19:43:42.528Z,11.26
2022-11-07T19:46:30.366Z,11.28
2022-11-07T19:49:18.013Z,11.30
2022-11-07T19:52:07.290Z,11.30
2022-11-07T19:54:57.344Z,11.31
2022-11-07T19:57:44.968Z,11.33
2022-11-07T20:00:33.171Z,11.34
2022-11-07T20:03:21.707Z,11.35
2022-11-07T20:06:15.232Z,11.36
2022-11-07T20:09:07.269Z,11.36
2022-11-07T20:11:54.930Z,11.37
2022-11-07T20:14:42.725Z,11.37
2022-11-07T20:17:30.291Z,11.36
2022-11-07T20:20:17.858Z,11.36
2022-11-07T20:23:05.747Z,11.37
2022-11-07T20:25:54.687Z,11.37
2022-11-07T20:28:42.381Z,11.38
2022-11-07T20:31:32.903Z,11.37
2022-11-07T20:34:22.065Z,11.35
2022-11-07T20:37:09.775Z,11.36
2022-11-07T20:39:57.454Z,11.36
2022-11-07T20:42:46.382Z,11.36
2022-11-07T20:45:35.431Z,11.35
2022-11-07T20:48:23.138Z,11.34
2022-11-07T20:51:12.150Z,11.32
2022-11-07T20:54:00.850Z,11.32
2022-11-07T20:56:48.428Z,11.31
2022-11-07T20:59:42.265Z,11.31
2022-11-07T21:02:29.994Z,11.29
2022-11-07T21:05:18.774Z,11.29
2022-11-07T21:08:07.154Z,11.28
2022-11-07T21:10:55.591Z,11.27
2022-11-07T21:13:49.665Z,11.25
2022-11-07T21:16:41.736Z,11.25
2022-11-07T21:19:30.020Z,11.25
2022-11-07T21:22:17.377Z,11.24
2022-11-07T21:25:06.011Z,11.21
2022-11-07T21:27:56.044Z,11.21
2022-11-07T21:30:43.334Z,11.21
2022-11-07T21:33:32.528Z,11.20
2022-11-07T21:36:23.481Z,11.20
2022-11-07T21:39:12.597Z,11.18
2022-11-07T21:42:00.349Z,11.18
2022-11-07T21:44:48.617Z,11.16
2022-11-07T21:47:35.933Z,11.15
2022-11-07T21:50:43.436Z,11.14
2022-11-07T21:53:36.632Z,11.13
2022-11-07T21:56:29.935Z,11.13
2022-11-07T21:59:17.964Z,11.11
2022-11-07T22:02:06.120Z,11.11
2022-11-07T22:04:53.629Z,11.10
2022-11-07T22:07:42.874Z,11.08
2022-11-07T22:10:30.422Z,11.09
2022-11-07T22:13:19.561Z,11.09
2022-11-07T22:16:13.384Z,11.07
2022-11-07T22:19:01.507Z,11.07
2022-11-07T22:21:50.573Z,11.06
2022-11-07T22:24:40.076Z,11.04
2022-11-07T22:27:27.882Z,11.04
2022-11-07T22:30:15.853Z,11.05
2022-11-07T22:33:03.586Z,11.03
2022-11-07T22:35:51.370Z,11.02
2022-11-07T22:38:40.206Z,11.01
2022-11-07T22:41:30.327Z,11.00
2022-11-07T22:44:17.634Z,10.99
2022-11-07T22:47:05.265Z,10.99
2022-11-07T22:49:52.892Z,10.98
2022-11-07T22:52:40.381Z,10.99
2022-11-07T22:55:30.371Z,10.97
2022-11-07T22:58:19.722Z,10.97
2022-11-07T23:01:14.564Z,10.96
2022-11-07T23:04:02.573Z,10.94
2022-11-07T23:06:50.050Z,10.96
2022-11-07T23:09:37.849Z,10.96
2022-11-07T23:12:25.452Z,10.95
2022-11-07T23:15:14.733Z,10.95
2022-11-07T23:18:02.267Z,10.95
2022-11-07T23:21:07.041Z,10.95
2022-11-07T23:23:56.346Z,10.94
2022-11-07T23:26:43.953Z,10.94
2022-11-07T23:29:31.472Z,10.93
2022-11-07T23:32:20.695Z,10.93
2022-11-07T23:35:09.961Z,10.92
2022-11-07T23:37:57.382Z,10.91
2022-11-07T23:40:45.282Z,10.93
2022-11-07T23:43:33.544Z,10.89
2022-11-07T23:46:40.904Z,10.92
2022-11-07T23:49:49.497Z,10.90
2022-11-07T23:52:37.144Z,10.90
2022-11-07T23:55:42.515Z,10.89
2022-11-07T23:58:47.096Z,10.89
